Accueil
METAR-TAF:

METAR-TAF

Aéroports :

Aéroport de Burgos

Burgos, Espagne

latitude: 42-22N, longitude: 003-38W, altitude: 894 m

Observation

Le bulletin a été fait il y a 38 minutes, à 04:30 UTC
Vent 4 kt de nord/nord-est
Température 1°C
Humidité 80%
Pression 1025 hPa
Visibilité 10 km ou plus

METAR: LEBG 240430Z AUTO 03004KT 9999 NCD 01/M02 Q1025

Heure: 06:08 (05:08 UTC)

Prévision

Le bulletin a été fait il y a 3 heures et 8 minutes, à 02:00 UTC
Prévision valable du 24 à 03 UTC au 24 à 12 UTC
Vent 4 kt de direction variable
Visibilité 10 km ou plus
pas de nuages en-dessous de 1500 mètres et pas de cumulonimbus.
Evoluant progressivement
du 24 à 10 UTC au 24 à 12 UTC
Vent 10 kt de est

TAF: LEBG 240200Z 2403/2412 VRB04KT CAVOK BECMG 2410/2412 08010KT

Observations et prévisions météorologiques de plus de 4000 aéroports (messages METAR et TAF).

Les stations disponibles sont représentées par des disques jaunes et rouges sur la carte.

Passer la souris dessus pour voir le nom de la station.

Cliquer dessus pour voir les observations et prévisions météorologiques.

Pour changer de carte: cliquez sur les boutons verts avec une croix noire pour zoomer, sur le bouton vert avec un tiret pour effectuer un zoom arrière, ou sur les flèches vertes pour les cartes adjacentes.


METAR-TAF: